Time;durP1;ratioP1;P1;durP2;ratioP2;P2;SDS_P1;SDS_P2;PMS_P1;PMS_P2;Temp;Humidity;BMP_temperature;BMP_pressure;BME280_temperature;BME280_humidity;BME280_pressure;Samples;Min_cycle;Max_cycle;Signal;HPM_P1;HPM_P2
2024/03/28 00:01:07;;;;;;;41.92;21.63;;;;;;;7.45;100.00;98007.75;5069786;28;20044;-79
2024/03/28 00:03:33;;;;;;;33.65;20.45;;;;;;;7.41;100.00;98006.53;5071973;28;20037;-79
2024/03/28 00:05:59;;;;;;;;;;;;;;;7.41;100.00;98014.50;5068849;28;20036;-79
2024/03/28 00:08:26;;;;;;;33.25;20.15;;;;;;;7.44;100.00;98042.47;5072636;28;19916;-79
2024/03/28 00:10:52;;;;;;;36.13;22.55;;;;;;;7.32;100.00;98015.75;5069898;28;20024;-78
2024/03/28 00:13:18;;;;;;;;;;;;;;;7.42;100.00;98032.03;5071545;28;20055;-79
2024/03/28 00:15:44;;;;;;;40.55;22.58;;;;;;;7.41;100.00;98035.72;5064338;28;20405;-77
2024/03/28 00:18:10;;;;;;;44.25;24.50;;;;;;;7.35;100.00;98008.19;5068263;28;20051;-76
2024/03/28 00:20:36;;;;;;;41.13;24.67;;;;;;;7.27;100.00;98003.09;5071284;28;20081;-79
2024/03/28 00:23:02;;;;;;;44.05;26.40;;;;;;;7.26;100.00;98008.59;5072216;28;20056;-78
2024/03/28 00:25:28;;;;;;;47.05;27.98;;;;;;;7.17;100.00;98016.00;5069899;28;20147;-78
2024/03/28 00:27:54;;;;;;;47.08;27.75;;;;;;;7.28;100.00;98039.25;5073394;28;20085;-78
2024/03/28 00:30:19;;;;;;;45.57;25.40;;;;;;;7.33;100.00;98038.63;5071066;28;20044;-78
2024/03/28 00:32:48;;;;;;;46.50;27.97;;;;;;;7.37;100.00;98015.94;5067031;28;20656;-79
2024/03/28 00:35:16;;;;;;;47.33;28.13;;;;;;;7.31;100.00;97998.22;5065938;28;20028;-79
2024/03/28 00:37:42;;;;;;;40.80;25.92;;;;;;;7.33;100.00;98002.28;5067542;28;20395;-78
2024/03/28 00:40:07;;;;;;;51.42;28.88;;;;;;;7.23;100.00;97985.16;5071533;28;20039;-76
2024/03/28 00:42:33;;;;;;;47.38;29.55;;;;;;;7.23;100.00;97985.16;5069594;28;20062;-76
2024/03/28 00:44:59;;;;;;;49.20;29.65;;;;;;;7.11;100.00;97967.22;5066222;28;20040;-76
2024/03/28 00:47:24;;;;;;;54.08;33.83;;;;;;;7.17;100.00;97987.63;5071926;28;20074;-76
2024/03/28 00:49:50;;;;;;;54.73;33.13;;;;;;;7.19;100.00;97990.06;5050643;28;20111;-77
2024/03/28 00:52:15;;;;;;;52.87;31.87;;;;;;;7.19;100.00;97990.88;5055518;28;20661;-79
2024/03/28 00:54:41;;;;;;;54.37;33.13;;;;;;;7.20;100.00;97975.78;5056207;28;20278;-78
2024/03/28 00:57:06;;;;;;;51.88;33.05;;;;;;;7.25;100.00;97961.88;5081755;28;20384;-76
2024/03/28 00:59:31;;;;;;;57.90;33.53;;;;;;;7.21;100.00;97942.09;5084216;28;20031;-76
2024/03/28 01:01:57;;;;;;;51.83;32.37;;;;;;;7.19;100.00;97943.13;5086889;28;20098;-78
2024/03/28 01:04:22;;;;;;;52.47;34.50;;;;;;;7.21;100.00;97939.44;5089398;28;20066;-79
2024/03/28 01:06:47;;;;;;;67.50;35.37;;;;;;;7.15;100.00;97936.59;5082251;28;20100;-78
2024/03/28 01:09:13;;;;;;;58.13;37.70;;;;;;;7.10;100.00;97952.31;5071542;28;20846;-78
2024/03/28 01:11:38;;;;;;;66.10;38.60;;;;;;;7.07;100.00;97962.53;5085471;28;20028;-77
2024/03/28 01:14:04;;;;;;;67.93;39.43;;;;;;;7.07;100.00;97970.47;5083195;28;20044;-77
2024/03/28 01:16:29;;;;;;;65.38;36.65;;;;;;;7.08;100.00;97980.09;5087286;28;20309;-78
2024/03/28 01:18:55;;;;;;;73.57;40.60;;;;;;;6.93;100.00;97956.44;5074898;28;20043;-78
2024/03/28 01:21:20;;;;;;;66.47;40.33;;;;;;;6.96;100.00;97975.41;5067885;28;20287;-76
2024/03/28 01:23:45;;;;;;;75.57;42.47;;;;;;;6.95;100.00;97986.22;5072579;28;20029;-78
2024/03/28 01:26:11;;;;;;;71.40;40.97;;;;;;;6.83;100.00;97971.97;5071428;28;20062;-79
2024/03/28 01:28:36;;;;;;;64.70;37.73;;;;;;;6.80;100.00;97986.44;5078912;28;20040;-79
2024/03/28 01:31:03;;;;;;;67.40;41.22;;;;;;;6.83;100.00;97991.34;5071807;28;20111;-79
2024/03/28 01:33:28;;;;;;;67.10;39.35;;;;;;;6.83;100.00;98009.09;5071829;28;20158;-78
2024/03/28 01:35:54;;;;;;;77.50;41.50;;;;;;;6.91;100.00;98014.19;5055360;28;20038;-78
2024/03/28 01:38:19;;;;;;;66.00;40.27;;;;;;;6.87;100.00;98003.16;5076607;28;20028;-78
2024/03/28 01:40:44;;;;;;;71.40;42.65;;;;;;;6.93;100.00;98007.66;5072912;28;20365;-79
2024/03/28 01:43:10;;;;;;;64.63;39.53;;;;;;;6.92;100.00;97999.91;5062276;28;20402;-78
2024/03/28 01:45:35;;;;;;;63.90;40.17;;;;;;;7.05;100.00;98012.34;5074708;28;20085;-79
2024/03/28 01:48:01;;;;;;;64.65;38.05;;;;;;;7.02;100.00;97987.03;5072339;28;20415;-79
2024/03/28 01:50:28;;;;;;;70.75;41.10;;;;;;;7.00;100.00;97970.53;5072694;28;20032;-79
2024/03/28 01:52:54;;;;;;;67.68;40.38;;;;;;;6.94;100.00;97964.19;5072868;28;20594;-77
2024/03/28 01:55:20;;;;;;;74.75;39.70;;;;;;;7.01;100.00;97968.69;5073421;28;20193;-76
2024/03/28 01:57:46;;;;;;;71.55;42.15;;;;;;;7.02;100.00;97957.84;5083262;28;20036;-76
2024/03/28 02:00:13;;;;;;;69.65;43.65;;;;;;;6.94;100.00;97960.72;5053888;28;20273;-75
2024/03/28 02:02:40;;;;;;;62.13;38.58;;;;;;;7.00;100.00;97964.38;5077316;28;20082;-74
2024/03/28 02:05:06;;;;;;;71.95;42.05;;;;;;;7.04;100.00;97969.06;5071279;28;20020;-76
2024/03/28 02:07:31;;;;;;;65.82;38.80;;;;;;;7.06;100.00;97963.56;5060455;28;20024;-76
2024/03/28 02:09:57;;;;;;;62.37;37.63;;;;;;;7.07;100.00;97958.06;5070516;28;20514;-75
2024/03/28 02:12:23;;;;;;;67.00;40.15;;;;;;;7.01;100.00;97953.56;5055827;28;20720;-78
2024/03/28 02:14:49;;;;;;;71.78;41.22;;;;;;;7.06;100.00;97948.44;5071836;28;20518;-77
2024/03/28 02:17:14;;;;;;;75.55;43.08;;;;;;;7.08;100.00;97938.44;5072642;28;20036;-77
2024/03/28 02:19:45;;;;;;;67.75;41.30;;;;;;;7.08;100.00;97942.94;5077936;28;20048;-77
2024/03/28 02:22:10;;;;;;;68.47;39.60;;;;;;;7.11;100.00;97934.56;5069084;28;20039;-76
2024/03/28 02:24:36;;;;;;;63.37;38.87;;;;;;;7.23;100.00;97935.53;5061512;28;20028;-79
2024/03/28 02:27:01;;;;;;;64.40;38.03;;;;;;;7.08;100.00;97911.91;5056077;28;20107;-78
2024/03/28 02:29:27;;;;;;;63.67;38.90;;;;;;;7.08;100.00;97916.41;5084279;28;20028;-78
2024/03/28 02:31:52;;;;;;;62.57;36.70;;;;;;;7.09;100.00;97910.88;5054579;28;20583;-77
2024/03/28 02:34:18;;;;;;;59.63;37.55;;;;;;;7.16;100.00;97908.22;5072600;28;20529;-78
2024/03/28 02:36:43;;;;;;;63.43;37.40;;;;;;;7.09;100.00;97899.47;5071078;28;20486;-76
2024/03/28 02:39:10;;;;;;;63.80;37.47;;;;;;;7.14;100.00;97895.19;5056483;28;20329;-77
2024/03/28 02:41:36;;;;;;;65.70;41.25;;;;;;;7.10;100.00;97880.69;5080428;28;20035;-77
2024/03/28 02:44:01;;;;;;;61.23;36.43;;;;;;;7.04;100.00;97868.25;5071656;28;20024;-76
2024/03/28 02:46:26;;;;;;;58.07;36.07;;;;;;;7.09;100.00;97870.28;5072896;28;20267;-76
2024/03/28 02:48:52;;;;;;;61.73;38.13;;;;;;;7.03;100.00;97866.63;5053435;28;20060;-75
2024/03/28 02:51:17;;;;;;;59.13;34.60;;;;;;;7.03;100.00;97864.00;5068699;28;20154;-74
2024/03/28 02:53:43;;;;;;;64.20;36.20;;;;;;;6.92;100.00;97846.88;5075716;28;20032;-74
2024/03/28 02:56:08;;;;;;;67.47;38.23;;;;;;;6.85;100.00;97851.41;5052772;28;20032;-75
2024/03/28 02:58:33;;;;;;;57.50;35.73;;;;;;;6.94;100.00;97846.69;5083155;28;20510;-77
2024/03/28 03:01:03;;;;;;;58.73;36.30;;;;;;;6.96;100.00;97844.63;5086895;28;20035;-75
2024/03/28 03:03:28;;;;;;;70.03;35.05;;;;;;;6.95;100.00;97843.81;5066016;28;20278;-75
2024/03/28 03:05:54;;;;;;;56.50;33.47;;;;;;;6.90;100.00;97834.84;5086754;28;20035;-75
2024/03/28 03:08:19;;;;;;;68.18;36.97;;;;;;;6.84;100.00;97828.56;5069713;28;20036;-76
2024/03/28 03:10:45;;;;;;;62.43;36.67;;;;;;;6.78;100.00;97823.28;5086702;28;20036;-76
2024/03/28 03:13:11;;;;;;;53.53;33.47;;;;;;;6.75;100.00;97813.91;5087620;28;20028;-75
2024/03/28 03:15:36;;;;;;;54.45;34.00;;;;;;;6.90;100.00;97824.25;5086677;28;20123;-75
2024/03/28 03:18:02;;;;;;;57.22;33.88;;;;;;;6.82;100.00;97798.78;5069824;28;20120;-75
2024/03/28 03:20:28;;;;;;;61.17;34.33;;;;;;;6.81;100.00;97806.94;5086286;28;20047;-73
2024/03/28 03:23:04;;;;;;;55.40;31.75;;;;;;;6.79;100.00;97796.56;5069528;28;20031;-74
2024/03/28 03:25:41;;;;;;;56.30;33.58;;;;;;;6.79;100.00;97782.47;5087870;28;20102;-75
2024/03/28 03:36:19;;;;;;;55.67;34.65;;;;;;;6.58;100.00;97787.06;5087907;28;20028;-78
2024/03/28 03:38:44;;;;;;;59.53;33.33;;;;;;;6.74;100.00;97812.25;5087911;28;20027;-76
2024/03/28 03:41:09;;;;;;;59.63;33.57;;;;;;;6.79;100.00;97804.50;5087104;28;20035;-77
2024/03/28 03:43:35;;;;;;;59.67;33.37;;;;;;;6.83;100.00;97795.09;5069952;28;20119;-77
2024/03/28 03:46:00;;;;;;;56.30;32.43;;;;;;;6.89;100.00;97793.47;5087700;28;20424;-78
2024/03/28 03:48:25;;;;;;;57.07;31.20;;;;;;;6.92;100.00;97793.84;5070159;28;20040;-78
2024/03/28 03:50:52;;;;;;;49.37;31.60;;;;;;;6.95;100.00;97781.97;5087541;28;20047;-78
2024/03/28 03:53:18;;;;;;;56.45;33.13;;;;;;;6.98;100.00;97771.78;5069941;28;20084;-76
2024/03/28 03:55:51;;;;;;;59.27;32.60;;;;;;;6.96;100.00;97776.47;5078844;28;20024;-75
2024/03/28 03:58:17;;;;;;;56.78;34.10;;;;;;;6.92;100.00;97758.53;5072221;28;20279;-76
2024/03/28 04:00:42;;;;;;;53.63;33.90;;;;;;;6.92;100.00;97750.59;5068622;28;20024;-75
2024/03/28 04:03:07;;;;;;;58.97;32.63;;;;;;;6.84;100.00;97734.94;5078015;28;20090;-75
2024/03/28 04:05:33;;;;;;;58.07;33.93;;;;;;;6.82;100.00;97729.03;5084483;28;20333;-76
2024/03/28 04:07:59;;;;;;;55.75;32.70;;;;;;;6.83;100.00;97733.28;5085707;28;20032;-75
2024/03/28 04:10:24;;;;;;;70.43;37.03;;;;;;;6.79;100.00;97719.66;5068256;28;20114;-75
2024/03/28 04:12:49;;;;;;;64.27;36.97;;;;;;;6.83;100.00;97722.69;5064792;28;20020;-75
2024/03/28 04:15:15;;;;;;;60.90;34.10;;;;;;;6.88;100.00;97722.84;5056646;28;20047;-75
2024/03/28 04:17:40;;;;;;;61.03;32.83;;;;;;;6.84;100.00;97717.19;5085813;28;20492;-74
2024/03/28 04:20:11;;;;;;;53.10;33.63;;;;;;;6.93;100.00;97721.22;5085182;28;20040;-76
2024/03/28 04:22:36;;;;;;;56.50;32.95;;;;;;;6.93;100.00;97715.91;5084978;28;20048;-74
2024/03/28 04:25:02;;;;;;;61.22;36.85;;;;;;;6.91;100.00;97702.03;5086394;28;20076;-76
2024/03/28 04:27:28;;;;;;;65.15;35.65;;;;;;;6.89;100.00;97701.44;5076573;28;20072;-75
2024/03/28 04:29:53;;;;;;;58.63;33.83;;;;;;;6.95;100.00;97713.88;5067929;28;20062;-75
2024/03/28 04:32:19;;;;;;;59.25;34.55;;;;;;;6.91;100.00;97703.88;5084636;28;20036;-76
2024/03/28 04:34:44;;;;;;;66.57;36.83;;;;;;;6.98;100.00;97720.56;5068154;28;20456;-75
2024/03/28 04:37:09;;;;;;;67.77;38.07;;;;;;;6.96;100.00;97706.72;5085052;28;20028;-76
2024/03/28 04:39:35;;;;;;;65.27;36.83;;;;;;;7.14;100.00;97701.50;5085957;28;20081;-75
2024/03/28 04:42:00;;;;;;;73.70;39.87;;;;;;;7.08;100.00;97685.63;5068213;28;20481;-76
2024/03/28 04:44:26;;;;;;;71.13;38.73;;;;;;;7.06;100.00;97691.13;5067823;28;20028;-75
2024/03/28 04:46:52;;;;;;;69.82;40.83;;;;;;;7.02;100.00;97687.28;5061129;28;20273;-76
2024/03/28 04:49:17;;;;;;;65.70;37.92;;;;;;;7.17;100.00;97705.56;5084435;28;20032;-74
2024/03/28 04:51:44;;;;;;;71.90;39.65;;;;;;;7.11;100.00;97691.28;5067637;28;20044;-74
2024/03/28 04:54:09;;;;;;;64.25;37.95;;;;;;;7.08;100.00;97698.88;5084448;28;20098;-75
2024/03/28 04:56:40;;;;;;;77.10;41.40;;;;;;;7.05;100.00;97701.97;5068068;28;20463;-76
2024/03/28 04:59:05;;;;;;;61.85;38.20;;;;;;;7.04;100.00;97711.75;5084314;28;20267;-76
2024/03/28 05:01:31;;;;;;;71.20;40.57;;;;;;;7.00;100.00;97705.25;5085462;28;20077;-76
2024/03/28 05:03:56;;;;;;;70.32;39.17;;;;;;;7.03;100.00;97715.44;5084432;28;20278;-76
2024/03/28 05:06:22;;;;;;;79.37;38.97;;;;;;;6.92;100.00;97698.34;5084441;28;20039;-75
2024/03/28 05:08:47;;;;;;;71.47;41.70;;;;;;;6.83;100.00;97704.13;5084006;28;20024;-74
2024/03/28 05:11:12;;;;;;;82.75;43.42;;;;;;;6.63;100.00;97713.00;5067926;28;20047;-74
2024/03/28 05:13:38;;;;;;;75.20;41.30;;;;;;;6.74;100.00;97754.75;5084354;28;20056;-75
2024/03/28 05:16:06;;;;;;;80.83;43.73;;;;;;;6.81;100.00;97765.31;5084573;28;20032;-75
2024/03/28 05:18:31;;;;;;;82.70;42.70;;;;;;;6.86;100.00;97767.34;5084033;28;20115;-75
2024/03/28 05:20:56;;;;;;;81.33;43.33;;;;;;;6.75;100.00;97759.03;5084349;28;20244;-76
2024/03/28 05:23:22;;;;;;;85.17;44.30;;;;;;;6.83;100.00;97762.47;5084043;28;20047;-75
2024/03/28 05:25:47;;;;;;;81.60;44.83;;;;;;;6.82;100.00;97771.47;5085678;28;20032;-74
2024/03/28 05:28:13;;;;;;;79.40;42.93;;;;;;;6.76;100.00;97763.28;5085392;28;20067;-74
2024/03/28 05:30:38;;;;;;;77.20;43.37;;;;;;;6.88;100.00;97776.75;5088849;28;20045;-76
2024/03/28 05:33:03;;;;;;;75.23;40.93;;;;;;;6.93;100.00;97770.78;5089154;28;20395;-76
2024/03/28 05:35:29;;;;;;;85.55;46.00;;;;;;;6.87;100.00;97758.38;5069609;28;20043;-76
2024/03/28 05:37:54;;;;;;;89.32;44.25;;;;;;;6.82;100.00;97751.06;5070901;28;20483;-76
2024/03/28 05:40:19;;;;;;;92.00;46.60;;;;;;;6.84;100.00;97756.16;5084438;28;20040;-75
2024/03/28 05:42:45;;;;;;;81.67;44.50;;;;;;;6.94;100.00;97769.75;5070810;28;20098;-75
2024/03/28 05:45:12;;;;;;;81.27;44.87;;;;;;;6.90;100.00;97764.06;5089306;28;20626;-75
2024/03/28 05:47:38;;;;;;;84.75;43.35;;;;;;;6.93;100.00;97768.94;5087720;28;20036;-76
2024/03/28 05:50:03;;;;;;;86.72;44.63;;;;;;;6.90;100.00;97755.28;5087426;28;20035;-76
2024/03/28 05:52:29;;;;;;;83.93;44.85;;;;;;;6.92;100.00;97761.19;5090360;28;20038;-78
2024/03/28 05:54:54;;;;;;;89.73;45.80;;;;;;;7.00;100.00;97757.47;5091412;28;20085;-78
2024/03/28 05:57:19;;;;;;;79.30;44.93;;;;;;;6.94;100.00;97748.53;5091193;28;20043;-77
2024/03/28 05:59:45;;;;;;;93.83;47.63;;;;;;;6.98;100.00;97739.16;5071873;28;20028;-78
2024/03/28 06:02:10;;;;;;;89.37;46.63;;;;;;;6.95;100.00;97729.78;5079805;28;20036;-78
2024/03/28 06:04:36;;;;;;;80.03;46.00;;;;;;;6.96;100.00;97719.97;5090180;28;20030;-78
2024/03/28 06:07:01;;;;;;;78.00;43.63;;;;;;;6.98;100.00;97718.72;5074571;28;20028;-78
2024/03/28 06:09:26;;;;;;;83.67;43.40;;;;;;;6.89;100.00;97700.63;5088292;28;20463;-75
2024/03/28 06:11:52;;;;;;;84.87;45.83;;;;;;;6.89;100.00;97713.91;5087503;28;20308;-75
2024/03/28 06:14:17;;;;;;;86.40;43.80;;;;;;;6.94;100.00;97698.97;5088709;28;20028;-75
2024/03/28 06:16:43;;;;;;;77.88;43.08;;;;;;;7.03;100.00;97693.41;5087258;28;20093;-76
2024/03/28 06:19:08;;;;;;;77.68;42.97;;;;;;;7.01;100.00;97688.31;5088472;28;20032;-76
2024/03/28 06:21:34;;;;;;;79.93;43.22;;;;;;;7.16;100.00;97690.66;5062057;28;20444;-75
2024/03/28 06:24:00;;;;;;;76.53;43.27;;;;;;;7.11;100.00;97656.81;5090547;28;20028;-78
2024/03/28 06:26:25;;;;;;;80.43;44.42;;;;;;;6.92;100.00;97658.56;5091145;28;20084;-78
2024/03/28 06:28:53;;;;;;;76.60;44.30;;;;;;;6.90;100.00;97668.56;5084241;28;20085;-78
2024/03/28 06:31:21;;;;;;;79.95;42.53;;;;;;;7.05;100.00;97686.88;5083476;28;20036;-76
2024/03/28 06:33:49;;;;;;;74.25;42.05;;;;;;;7.11;100.00;97683.34;5087554;28;20039;-76
2024/03/28 06:36:15;;;;;;;75.88;42.60;;;;;;;7.06;100.00;97680.50;5070216;28;20028;-76
2024/03/28 06:38:40;;;;;;;74.03;40.28;;;;;;;7.06;100.00;97685.00;5069812;28;20036;-75
2024/03/28 06:41:06;;;;;;;75.47;41.80;;;;;;;7.14;100.00;97687.38;5068721;28;20032;-74
2024/03/28 06:43:31;;;;;;;74.30;41.83;;;;;;;7.01;100.00;97683.00;5086876;28;20032;-76
2024/03/28 06:45:57;;;;;;;69.77;39.50;;;;;;;6.97;100.00;97687.09;5086927;28;20193;-76
2024/03/28 06:48:22;;;;;;;65.33;36.93;;;;;;;7.02;100.00;97697.06;5060857;28;20785;-74
2024/03/28 06:50:47;;;;;;;66.83;39.40;;;;;;;7.08;100.00;97689.06;5086594;28;20044;-75
2024/03/28 06:53:14;;;;;;;60.00;36.17;;;;;;;6.98;100.00;97673.63;5069360;28;20042;-75
2024/03/28 06:55:39;;;;;;;64.22;36.05;;;;;;;7.07;100.00;97684.81;5086382;28;20027;-75
2024/03/28 06:58:05;;;;;;;68.67;38.27;;;;;;;7.06;100.00;97674.41;5086036;28;20032;-75
2024/03/28 07:00:30;;;;;;;66.23;36.93;;;;;;;7.07;100.00;97678.66;5086050;28;20277;-75
2024/03/28 07:02:56;;;;;;;67.33;37.67;;;;;;;7.08;100.00;97681.13;5069374;28;20036;-76
2024/03/28 07:05:21;;;;;;;66.07;37.65;;;;;;;7.01;100.00;97675.03;5069050;28;20031;-74
2024/03/28 07:07:47;;;;;;;57.47;35.60;;;;;;;7.03;100.00;97673.00;5087193;28;20032;-75
2024/03/28 07:10:12;;;;;;;62.47;34.47;;;;;;;7.07;100.00;97684.81;5069239;28;20059;-73
2024/03/28 07:12:37;;;;;;;54.37;32.83;;;;;;;7.09;100.00;97669.47;5086918;28;20470;-74
2024/03/28 07:15:04;;;;;;;61.00;34.70;;;;;;;7.07;100.00;97660.09;5085902;28;20055;-74
2024/03/28 07:17:29;;;;;;;67.88;36.58;;;;;;;7.09;100.00;97655.41;5068361;28;20082;-75
2024/03/28 07:19:55;;;;;;;62.50;37.10;;;;;;;7.06;100.00;97651.34;5086885;28;20059;-75
2024/03/28 07:22:21;;;;;;;61.28;37.55;;;;;;;7.04;100.00;97642.78;5085656;28;20047;-75
2024/03/28 07:24:46;;;;;;;63.83;35.30;;;;;;;7.01;100.00;97637.91;5085896;28;20047;-75
2024/03/28 07:27:11;;;;;;;63.50;36.30;;;;;;;7.04;100.00;97640.13;5086992;28;20274;-74
2024/03/28 07:29:38;;;;;;;59.72;35.90;;;;;;;7.14;100.00;97652.91;5068183;28;20139;-75
2024/03/28 07:32:03;;;;;;;64.40;36.37;;;;;;;7.14;100.00;97648.44;5085830;28;20115;-74
2024/03/28 07:34:29;;;;;;;55.33;34.05;;;;;;;6.92;100.00;97628.59;5086820;28;20069;-75
2024/03/28 07:36:54;;;;;;;61.53;34.60;;;;;;;7.07;100.00;97666.25;5086569;28;20038;-75
2024/03/28 07:39:23;;;;;;;64.60;36.53;;;;;;;7.11;100.00;97666.59;5087472;28;20036;-75
2024/03/28 07:41:48;;;;;;;61.42;35.00;;;;;;;7.21;100.00;97669.63;5060707;28;20086;-75
2024/03/28 07:44:14;;;;;;;62.13;36.63;;;;;;;7.31;100.00;97667.28;5087010;28;20028;-75
2024/03/28 07:46:39;;;;;;;62.72;37.30;;;;;;;7.28;100.00;97658.91;5083033;28;20028;-75
2024/03/28 07:49:06;;;;;;;59.63;34.10;;;;;;;7.27;100.00;97662.63;5075986;28;20508;-75
2024/03/28 07:51:31;;;;;;;59.20;35.00;;;;;;;7.39;100.00;97672.28;5075693;28;20058;-74
2024/03/28 07:53:57;;;;;;;69.85;36.95;;;;;;;7.39;100.00;97664.34;5083830;28;20476;-74
2024/03/28 07:56:22;;;;;;;67.03;34.70;;;;;;;7.40;100.00;97659.88;5083182;28;20040;-75
2024/03/28 07:58:48;;;;;;;66.88;36.85;;;;;;;7.54;100.00;97664.03;5066395;28;20039;-74
2024/03/28 08:01:13;;;;;;;63.17;36.17;;;;;;;7.67;100.00;97664.91;5084728;28;20044;-75
2024/03/28 08:03:39;;;;;;;72.38;37.95;;;;;;;7.76;100.00;97674.22;5076490;28;20028;-76
2024/03/28 08:06:05;;;;;;;57.60;34.03;;;;;;;7.76;100.00;97672.38;5076979;28;20039;-74
2024/03/28 08:08:31;;;;;;;70.70;37.30;;;;;;;7.74;100.00;97695.69;5067585;28;20043;-76
2024/03/28 08:10:57;;;;;;;61.38;35.58;;;;;;;7.94;100.00;97718.59;5076988;28;20036;-75
2024/03/28 08:13:23;;;;;;;62.45;35.95;;;;;;;7.96;100.00;97709.38;5082717;28;20526;-74
2024/03/28 08:15:48;;;;;;;66.13;36.38;;;;;;;7.95;100.00;97699.78;5072859;28;20093;-75
2024/03/28 08:18:14;;;;;;;66.72;36.53;;;;;;;7.92;100.00;97696.75;5084250;28;20031;-75
2024/03/28 08:20:39;;;;;;;66.23;35.37;;;;;;;7.91;100.00;97708.41;5074306;28;20544;-75
2024/03/28 08:23:05;;;;;;;66.07;35.83;;;;;;;7.76;100.00;97698.13;5071961;28;20036;-77
2024/03/28 08:25:30;;;;;;;71.47;37.00;;;;;;;7.74;100.00;97713.47;5085413;28;20036;-77
2024/03/28 08:27:57;;;;;;;70.70;39.30;;;;;;;7.70;100.00;97754.75;5075266;28;20028;-77
2024/03/28 08:30:23;;;;;;;70.78;39.15;;;;;;;7.70;100.00;97768.88;5073945;28;20112;-75
2024/03/28 08:32:50;;;;;;;63.92;36.33;;;;;;;7.89;100.00;97809.59;5076284;28;20532;-75
2024/03/28 08:35:16;;;;;;;73.43;39.88;;;;;;;7.83;100.00;97800.63;5084364;28;20024;-76
2024/03/28 08:37:42;;;;;;;70.10;40.65;;;;;;;7.86;100.00;97803.88;5066736;28;20051;-75
2024/03/28 08:40:11;;;;;;;74.47;40.47;;;;;;;7.86;100.00;97803.88;5084248;28;20196;-75
2024/03/28 08:42:40;;;;;;;72.70;41.20;;;;;;;7.83;100.00;97816.56;5085214;28;20059;-74
2024/03/28 08:45:11;;;;;;;77.88;39.90;;;;;;;7.81;100.00;97818.59;5068381;28;20471;-77
2024/03/28 08:47:37;;;;;;;72.82;37.78;;;;;;;7.67;100.00;97808.31;5084024;28;20157;-75
2024/03/28 08:50:05;;;;;;;73.97;37.75;;;;;;;7.63;100.00;97809.75;5083495;28;20496;-75
2024/03/28 08:52:31;;;;;;;75.07;40.60;;;;;;;7.71;100.00;97809.50;5084853;28;20513;-76
2024/03/28 08:54:56;;;;;;;81.83;40.53;;;;;;;7.77;100.00;97805.97;5083801;28;20033;-75
2024/03/28 08:57:23;;;;;;;67.45;37.92;;;;;;;7.75;100.00;97781.47;5083211;28;20290;-74
2024/03/28 08:59:50;;;;;;;69.72;37.35;;;;;;;7.65;100.00;97767.88;5083447;28;20074;-74
2024/03/28 09:02:18;;;;;;;77.32;42.72;;;;;;;7.73;100.00;97778.25;5066677;28;20024;-75
2024/03/28 09:04:44;;;;;;;72.05;37.92;;;;;;;7.78;100.00;97783.72;5087146;28;20036;-75
2024/03/28 09:07:10;;;;;;;;;;;;;;;7.77;100.00;97779.41;5088904;28;20028;-75
2024/03/28 09:09:37;;;;;;;66.68;33.72;;;;;;;7.72;100.00;97779.25;5088071;28;19908;-74
2024/03/28 09:12:03;;;;;;;58.03;33.30;;;;;;;7.75;100.00;97776.16;5070842;28;20043;-75
2024/03/28 09:14:28;;;;;;;75.10;39.50;;;;;;;7.61;100.00;97765.66;5089218;28;20024;-74
2024/03/28 09:16:53;;;;;;;60.83;32.57;;;;;;;7.64;100.00;97771.56;5089149;28;20035;-75
2024/03/28 09:19:21;;;;;;;57.50;31.80;;;;;;;7.68;100.00;97783.38;5088869;28;20314;-75
2024/03/28 09:21:46;;;;;;;59.55;35.58;;;;;;;7.81;100.00;97783.28;5088337;28;20078;-75
2024/03/28 09:24:13;;;;;;;62.22;33.85;;;;;;;7.82;100.00;97782.25;5088959;28;20024;-72
2024/03/28 09:26:39;;;;;;;63.70;34.10;;;;;;;7.78;100.00;97770.44;5068664;28;20117;-72
2024/03/28 09:29:04;;;;;;;58.13;32.83;;;;;;;7.78;100.00;97762.47;5088472;28;20628;-73
2024/03/28 09:31:29;;;;;;;57.83;32.43;;;;;;;7.84;100.00;97772.22;5088519;28;20440;-74
2024/03/28 09:33:55;;;;;;;60.60;32.87;;;;;;;7.89;100.00;97768.91;5088818;28;20028;-74
2024/03/28 09:36:20;;;;;;;64.20;33.10;;;;;;;7.99;100.00;97775.34;5088779;28;20050;-73
2024/03/28 09:38:50;;;;;;;56.53;31.23;;;;;;;7.96;100.00;97778.47;5087959;28;20040;-73
2024/03/28 09:41:30;;;;;;;53.13;30.80;;;;;;;8.02;100.00;97782.88;5087196;28;20364;-73
2024/03/28 09:44:06;;;;;;;58.25;31.52;;;;;;;8.05;100.00;97797.56;5087138;28;20028;-74
2024/03/28 09:46:33;;;;;;;55.03;27.98;;;;;;;7.93;100.00;97794.00;5088337;28;20905;-73
2024/03/28 09:49:01;;;;;;;48.92;28.00;;;;;;;7.99;100.00;97809.88;5086794;28;20043;-74
2024/03/28 09:51:27;;;;;;;50.90;26.60;;;;;;;8.02;100.00;97825.38;5087971;28;20587;-74
2024/03/28 09:53:53;;;;;;;50.67;28.13;;;;;;;8.00;100.00;97834.59;5088159;28;20024;-74
2024/03/28 09:56:23;;;;;;;47.00;27.60;;;;;;;7.94;100.00;97841.63;5086988;28;20446;-74
2024/03/28 09:58:49;;;;;;;43.28;25.45;;;;;;;7.72;100.00;97832.38;5087234;28;20032;-73
2024/03/28 10:01:15;;;;;;;44.78;25.10;;;;;;;7.85;100.00;97842.09;5088070;28;20101;-73
2024/03/28 10:03:45;;;;;;;42.10;24.92;;;;;;;7.87;100.00;97824.09;5086635;28;20087;-74
2024/03/28 10:06:10;;;;;;;45.72;23.58;;;;;;;8.00;100.00;97821.31;5087080;28;20125;-73
2024/03/28 10:08:37;;;;;;;38.92;22.88;;;;;;;8.13;100.00;97831.03;5087633;28;20249;-73
2024/03/28 10:11:04;;;;;;;;;;;;;;;8.12;100.00;97824.91;5087344;28;20128;-74
2024/03/28 10:13:35;;;;;;;29.67;18.15;;;;;;;8.11;100.00;97843.72;5086552;28;19915;-74
2024/03/28 10:16:06;;;;;;;29.08;17.45;;;;;;;8.07;100.00;97835.38;5085409;28;20031;-74
2024/03/28 10:18:32;;;;;;;27.25;16.13;;;;;;;8.07;100.00;97843.34;5081262;28;20502;-74
2024/03/28 10:20:59;;;;;;;;;;;;;;;8.11;100.00;97843.72;5084764;28;20085;-74
2024/03/28 10:23:26;;;;;;;20.15;12.05;;;;;;;8.06;100.00;97835.59;5084744;28;19912;-74
2024/03/28 10:25:52;;;;;;;17.75;11.48;;;;;;;8.17;100.00;97843.69;5084954;28;20378;-74
2024/03/28 10:28:28;;;;;;;18.88;10.88;;;;;;;8.16;100.00;97833.25;5086028;28;20028;-74
2024/03/28 10:30:55;;;;;;;15.10;8.82;;;;;;;8.21;100.00;97834.22;5085508;28;20024;-74
2024/03/28 10:33:20;;;;;;;16.42;8.55;;;;;;;8.06;100.00;97819.66;5085827;28;20391;-75
2024/03/28 10:36:02;;;;;;;12.80;8.20;;;;;;;8.06;100.00;97833.75;5085104;28;20028;-75
2024/03/28 10:38:28;;;;;;;13.13;8.07;;;;;;;8.06;100.00;97838.25;5085996;28;20525;-75
2024/03/28 10:40:57;;;;;;;12.75;7.90;;;;;;;8.11;100.00;97844.53;5085439;28;20036;-74
2024/03/28 10:43:25;;;;;;;14.75;8.07;;;;;;;8.21;100.00;97852.81;5086062;28;20032;-75
2024/03/28 10:45:52;;;;;;;13.77;7.30;;;;;;;8.15;100.00;97835.09;5068394;28;20491;-74
2024/03/28 10:48:18;;;;;;;8.25;5.10;;;;;;;7.95;100.00;97835.25;5077193;28;20123;-74
2024/03/28 10:51:23;;;;;;;6.63;3.17;;;;;;;7.99;100.00;97843.63;5085335;28;20051;-73
2024/03/28 10:54:15;;;;;;;3.60;2.25;;;;;;;7.94;100.00;97838.97;5084640;28;20036;-73
2024/03/28 10:56:42;;;;;;;3.47;2.13;;;;;;;8.04;100.00;97839.28;5083770;28;20119;-73
2024/03/28 10:59:09;;;;;;;2.22;1.70;;;;;;;8.30;100.00;97849.91;5085091;28;20032;-73
2024/03/28 11:01:35;;;;;;;3.03;1.73;;;;;;;8.63;100.00;97842.44;5084741;28;20449;-73
2024/03/28 11:04:01;;;;;;;3.25;1.50;;;;;;;8.86;100.00;97844.44;5076749;28;20024;-73
2024/03/28 11:06:27;;;;;;;1.88;1.17;;;;;;;8.81;100.00;97814.22;5084310;28;20043;-73
2024/03/28 11:08:53;;;;;;;2.40;0.90;;;;;;;8.97;100.00;97815.47;5084923;28;20074;-73
2024/03/28 11:11:19;;;;;;;;;;;;;;;8.92;100.00;97802.00;5085458;28;20052;-73
2024/03/28 11:13:45;;;;;;;1.33;0.80;;;;;;;8.96;100.00;97795.22;5082877;28;19975;-73
2024/03/28 11:16:12;;;;;;;1.52;1.23;;;;;;;8.75;100.00;97775.22;5064250;28;20074;-73
2024/03/28 11:18:39;;;;;;;1.48;1.05;;;;;;;8.80;100.00;97784.16;5081389;28;20443;-73
2024/03/28 11:21:05;;;;;;;1.17;0.95;;;;;;;8.86;100.00;97796.56;5084217;28;20031;-73
2024/03/28 11:23:31;;;;;;;1.63;1.00;;;;;;;8.97;100.00;97789.66;5084056;28;20446;-73